createdAt,value
2019-03-25T00:01:13.209Z,15.08
2019-03-25T00:03:43.748Z,12.43
2019-03-25T00:06:14.052Z,13.15
2019-03-25T00:08:45.726Z,16.77
2019-03-25T00:11:15.005Z,20.60
2019-03-25T00:13:44.288Z,13.95
2019-03-25T00:16:13.547Z,19.00
2019-03-25T00:18:42.830Z,11.60
2019-03-25T00:21:12.113Z,13.00
2019-03-25T00:23:41.338Z,18.17
2019-03-25T00:26:10.594Z,11.78
2019-03-25T00:28:39.808Z,19.45
2019-03-25T00:31:09.071Z,11.25
2019-03-25T00:33:38.228Z,12.13
2019-03-25T00:36:07.590Z,10.38
2019-03-25T00:38:36.747Z,15.48
2019-03-25T00:41:05.950Z,13.13
2019-03-25T00:43:35.173Z,13.80
2019-03-25T00:46:04.408Z,10.80
2019-03-25T00:48:33.614Z,14.65
2019-03-25T00:51:02.805Z,13.15
2019-03-25T00:53:32.048Z,13.65
2019-03-25T00:56:01.258Z,13.90
2019-03-25T00:58:30.487Z,18.15
2019-03-25T01:00:59.685Z,10.60
2019-03-25T01:03:29.212Z,13.05
2019-03-25T01:05:58.453Z,11.80
2019-03-25T01:08:27.658Z,15.30
2019-03-25T01:10:56.852Z,16.52
2019-03-25T01:13:26.169Z,12.05
2019-03-25T01:15:55.381Z,14.93
2019-03-25T01:18:24.584Z,11.73
2019-03-25T01:20:53.809Z,13.75
2019-03-25T01:23:23.011Z,12.07
2019-03-25T01:25:52.231Z,20.75
2019-03-25T01:28:21.476Z,17.17
2019-03-25T01:30:50.749Z,15.75
2019-03-25T01:33:20.299Z,14.18
2019-03-25T01:35:49.536Z,13.98
2019-03-25T01:38:18.762Z,16.85
2019-03-25T01:40:48.265Z,17.37
2019-03-25T01:43:17.469Z,13.95
2019-03-25T01:45:46.713Z,17.35
2019-03-25T01:48:15.909Z,19.82
2019-03-25T01:50:45.117Z,14.30
2019-03-25T01:53:14.340Z,13.65
2019-03-25T01:55:43.572Z,13.68
2019-03-25T01:58:12.771Z,11.85
2019-03-25T02:00:42.268Z,10.30
2019-03-25T02:03:11.498Z,17.85
2019-03-25T02:05:40.692Z,15.15
2019-03-25T02:08:09.901Z,9.28
2019-03-25T02:10:39.759Z,18.55
2019-03-25T02:13:09.660Z,15.05
2019-03-25T02:15:38.862Z,12.18
2019-03-25T02:18:08.322Z,15.55
2019-03-25T02:20:37.554Z,11.60
2019-03-25T02:23:10.663Z,14.25
2019-03-25T02:28:08.537Z,18.12
2019-03-25T02:30:37.759Z,15.63
2019-03-25T02:33:06.957Z,13.93
2019-03-25T02:35:38.496Z,11.75
2019-03-25T02:38:07.757Z,14.13
2019-03-25T02:40:37.015Z,18.92
2019-03-25T02:43:06.295Z,19.40
2019-03-25T02:45:35.514Z,23.05
2019-03-25T02:48:05.122Z,17.35
2019-03-25T02:50:35.549Z,12.90
2019-03-25T02:53:05.220Z,15.60
2019-03-25T02:55:42.020Z,14.65
2019-03-25T02:58:06.695Z,25.43
2019-03-25T03:00:37.891Z,20.35
2019-03-25T03:03:08.134Z,20.75
2019-03-25T03:05:38.398Z,22.95
2019-03-25T03:08:07.785Z,19.50
2019-03-25T03:10:37.239Z,14.03
2019-03-25T03:13:06.802Z,18.20
2019-03-25T03:15:36.016Z,11.48
2019-03-25T03:18:05.712Z,16.80
2019-03-25T03:20:34.913Z,18.85
2019-03-25T03:23:04.151Z,14.00
2019-03-25T03:25:33.381Z,17.55
2019-03-25T03:28:02.696Z,17.30
2019-03-25T03:30:32.203Z,18.27
2019-03-25T03:33:01.441Z,11.38
2019-03-25T03:35:30.646Z,23.30
2019-03-25T03:37:59.854Z,15.08
2019-03-25T03:40:29.069Z,16.85
2019-03-25T03:42:58.285Z,18.45
2019-03-25T03:45:27.511Z,14.55
2019-03-25T03:47:56.996Z,17.17
2019-03-25T03:50:28.624Z,18.27
2019-03-25T03:52:58.837Z,19.52
2019-03-25T03:55:30.029Z,20.23
2019-03-25T03:58:00.000Z,14.60
2019-03-25T04:00:31.724Z,24.23
2019-03-25T04:03:01.914Z,16.37
2019-03-25T04:05:31.394Z,10.25
2019-03-25T04:08:01.128Z,23.40
2019-03-25T04:10:30.733Z,18.37
2019-03-25T04:13:00.367Z,17.87
2019-03-25T04:15:33.961Z,19.73
2019-03-25T04:18:03.189Z,11.12
2019-03-25T04:20:32.962Z,17.15
2019-03-25T04:23:02.310Z,21.05
2019-03-25T04:25:31.545Z,14.35
2019-03-25T04:28:00.759Z,12.18
2019-03-25T04:30:29.977Z,18.25
2019-03-25T04:32:59.216Z,13.55
2019-03-25T04:35:28.770Z,16.57
2019-03-25T04:37:57.990Z,14.90
2019-03-25T04:40:27.222Z,12.88
2019-03-25T04:42:56.469Z,14.33
2019-03-25T04:45:25.978Z,18.55
2019-03-25T04:47:55.203Z,9.05
2019-03-25T04:50:24.421Z,7.65
2019-03-25T04:52:53.655Z,16.25
2019-03-25T04:55:24.970Z,13.72
2019-03-25T04:57:54.205Z,12.73
2019-03-25T05:00:39.251Z,8.88
2019-03-25T05:03:08.477Z,12.37
2019-03-25T05:05:38.284Z,12.33
2019-03-25T05:08:07.520Z,4.92
2019-03-25T05:10:36.813Z,12.78
2019-03-25T05:13:06.796Z,9.95
2019-03-25T05:15:36.354Z,7.42
2019-03-25T05:18:05.877Z,4.40
2019-03-25T05:20:35.152Z,8.05
2019-03-25T05:23:05.017Z,6.20
2019-03-25T05:25:35.005Z,5.78
2019-03-25T05:28:05.031Z,5.70
2019-03-25T05:30:34.646Z,3.42
2019-03-25T05:33:04.517Z,5.15
2019-03-25T05:35:34.033Z,3.50
2019-03-25T05:38:03.658Z,4.83
2019-03-25T05:40:32.869Z,3.33
2019-03-25T05:43:02.072Z,4.97
2019-03-25T05:45:31.293Z,4.22
2019-03-25T05:48:00.500Z,6.17
2019-03-25T05:50:30.056Z,5.72
2019-03-25T05:52:59.385Z,6.55
2019-03-25T05:55:29.264Z,5.85
2019-03-25T05:57:58.778Z,5.50
2019-03-25T06:00:31.587Z,4.42
2019-03-25T06:03:01.198Z,3.30
2019-03-25T06:05:30.413Z,3.08
2019-03-25T06:07:59.621Z,5.70
2019-03-25T06:10:28.852Z,4.37
2019-03-25T06:12:58.080Z,5.83
2019-03-25T06:15:27.305Z,6.00
2019-03-25T06:17:57.515Z,8.13
2019-03-25T06:20:28.248Z,6.40
2019-03-25T06:22:57.923Z,4.33
2019-03-25T06:25:27.757Z,5.95
2019-03-25T06:27:58.633Z,10.08
2019-03-25T06:30:28.516Z,7.20
2019-03-25T06:32:58.401Z,8.83
2019-03-25T06:35:27.608Z,3.40
2019-03-25T06:37:56.855Z,8.73
2019-03-25T06:40:26.789Z,10.58
2019-03-25T06:42:57.024Z,6.28
2019-03-25T06:45:26.877Z,4.58
2019-03-25T06:47:56.375Z,5.72
2019-03-25T06:50:26.498Z,5.62
2019-03-25T06:52:56.778Z,8.18
2019-03-25T06:55:26.351Z,9.63
2019-03-25T06:57:55.538Z,10.55
2019-03-25T07:00:24.909Z,13.55
2019-03-25T07:02:54.132Z,7.47
2019-03-25T07:05:23.343Z,5.78
2019-03-25T07:07:52.930Z,7.92
2019-03-25T07:10:35.609Z,5.78
2019-03-25T07:13:08.980Z,5.42
2019-03-25T07:15:38.199Z,8.00
2019-03-25T07:18:08.448Z,9.80
2019-03-25T07:20:39.725Z,10.10
2019-03-25T07:23:09.208Z,6.78
2019-03-25T07:25:41.089Z,10.63
2019-03-25T07:28:12.667Z,7.62
2019-03-25T07:30:43.649Z,12.37
2019-03-25T07:33:12.849Z,8.48
2019-03-25T07:35:42.076Z,10.82
2019-03-25T07:38:11.329Z,10.08
2019-03-25T07:40:40.524Z,5.70
2019-03-25T07:43:09.757Z,13.70
2019-03-25T07:45:39.272Z,8.88
2019-03-25T07:48:08.467Z,11.53
2019-03-25T07:50:37.704Z,13.45
2019-03-25T07:53:06.991Z,16.85
2019-03-25T07:55:36.192Z,7.95
2019-03-25T07:58:05.541Z,12.15
2019-03-25T08:00:34.724Z,10.23
2019-03-25T08:03:04.039Z,11.75
2019-03-25T08:05:33.297Z,10.03
2019-03-25T08:08:02.464Z,9.48
2019-03-25T08:10:34.400Z,6.08
2019-03-25T08:13:04.891Z,11.68
2019-03-25T08:15:34.715Z,12.88
2019-03-25T08:18:04.240Z,18.10
2019-03-25T08:20:33.436Z,15.23
2019-03-25T08:23:02.640Z,13.05
2019-03-25T08:25:31.954Z,11.93
2019-03-25T08:28:01.329Z,17.10
2019-03-25T08:30:30.849Z,8.90
2019-03-25T08:33:00.072Z,15.00
2019-03-25T08:35:29.275Z,10.10
2019-03-25T08:37:58.587Z,14.25
2019-03-25T08:40:28.227Z,6.15
2019-03-25T08:42:57.415Z,6.03
2019-03-25T08:45:26.846Z,9.28
2019-03-25T08:47:56.414Z,4.97
2019-03-25T08:50:25.629Z,4.55
2019-03-25T08:52:54.815Z,5.50
2019-03-25T08:55:26.123Z,7.97
2019-03-25T08:57:55.334Z,7.15
2019-03-25T09:00:24.611Z,3.45
2019-03-25T09:02:53.835Z,3.47
2019-03-25T09:05:23.025Z,4.35
2019-03-25T09:07:52.214Z,6.55
2019-03-25T09:10:21.586Z,5.60
2019-03-25T09:12:50.791Z,3.77
2019-03-25T09:15:20.374Z,9.50
2019-03-25T09:17:50.189Z,6.80
2019-03-25T09:20:19.462Z,5.25
2019-03-25T09:22:49.314Z,4.55
2019-03-25T09:25:18.758Z,5.78
2019-03-25T09:27:47.954Z,5.60
2019-03-25T09:30:49.403Z,3.67
2019-03-25T09:33:18.603Z,3.55
2019-03-25T09:35:48.021Z,8.68
2019-03-25T09:38:17.409Z,6.00
2019-03-25T09:40:46.607Z,4.15
2019-03-25T09:43:15.821Z,7.42
2019-03-25T09:45:45.152Z,3.75
2019-03-25T09:48:14.664Z,7.40
2019-03-25T09:50:44.276Z,1.98
2019-03-25T09:53:13.493Z,3.80
2019-03-25T09:55:42.721Z,8.45
2019-03-25T09:58:36.321Z,6.08
2019-03-25T10:01:01.871Z,2.95
2019-03-25T10:03:31.101Z,5.80
2019-03-25T10:06:00.961Z,4.10
2019-03-25T10:08:30.234Z,4.10
2019-03-25T10:10:59.524Z,3.00
2019-03-25T10:13:28.754Z,1.42
2019-03-25T10:15:57.971Z,1.72
2019-03-25T10:18:27.177Z,1.82
2019-03-25T10:20:56.399Z,6.08
2019-03-25T10:23:25.665Z,1.75
2019-03-25T10:25:54.934Z,7.75
2019-03-25T10:28:24.249Z,2.27
2019-03-25T10:30:53.823Z,2.60
2019-03-25T10:33:23.030Z,1.25
2019-03-25T10:35:52.355Z,7.62
2019-03-25T10:38:21.949Z,4.17
2019-03-25T10:40:51.158Z,4.12
2019-03-25T10:43:20.370Z,5.10
2019-03-25T10:45:49.653Z,6.25
2019-03-25T10:48:18.848Z,9.25
2019-03-25T10:50:48.072Z,9.70
2019-03-25T10:53:17.273Z,4.12
2019-03-25T10:55:46.820Z,5.05
2019-03-25T10:58:16.017Z,2.95
2019-03-25T11:00:45.312Z,2.60
2019-03-25T11:03:14.600Z,1.22
2019-03-25T11:05:43.802Z,1.85
2019-03-25T11:08:13.019Z,6.70
2019-03-25T11:10:42.295Z,6.25
2019-03-25T11:13:13.452Z,3.22
2019-03-25T11:15:42.661Z,2.10
2019-03-25T11:18:11.881Z,5.53
2019-03-25T11:20:41.124Z,4.40
2019-03-25T11:23:10.328Z,1.17
2019-03-25T11:25:39.534Z,2.85
2019-03-25T11:28:08.754Z,3.90
2019-03-25T11:30:55.109Z,4.10
2019-03-25T11:33:24.494Z,1.20
2019-03-25T11:35:54.083Z,4.45
2019-03-25T11:38:23.461Z,2.08
2019-03-25T11:40:53.228Z,3.00
2019-03-25T11:43:22.597Z,3.75
2019-03-25T11:45:52.350Z,5.17
2019-03-25T11:48:21.750Z,7.17
2019-03-25T11:50:51.021Z,2.22
2019-03-25T11:53:20.249Z,4.08
2019-03-25T11:55:49.563Z,2.33
2019-03-25T11:58:19.117Z,2.20
2019-03-25T12:00:48.315Z,5.75
2019-03-25T12:03:17.550Z,3.95
2019-03-25T12:05:46.750Z,4.58
2019-03-25T12:08:16.050Z,4.53
2019-03-25T12:10:45.253Z,2.75
2019-03-25T12:13:14.453Z,3.25
2019-03-25T12:15:43.743Z,4.87
2019-03-25T12:18:13.311Z,5.45
2019-03-25T12:20:42.818Z,3.35
2019-03-25T12:23:12.039Z,6.83
2019-03-25T12:25:41.234Z,2.22
2019-03-25T12:28:10.433Z,2.58
2019-03-25T12:30:39.657Z,2.47
2019-03-25T12:33:08.933Z,6.87
2019-03-25T12:35:38.154Z,8.38
2019-03-25T12:38:07.360Z,3.52
2019-03-25T12:40:36.647Z,3.25
2019-03-25T12:43:05.891Z,4.33
2019-03-25T12:45:35.165Z,3.52
2019-03-25T12:48:04.453Z,3.25
2019-03-25T12:50:34.572Z,8.60
2019-03-25T12:53:03.887Z,3.65
2019-03-25T12:55:33.138Z,5.40
2019-03-25T12:58:02.366Z,4.90
2019-03-25T13:00:42.841Z,12.58
2019-03-25T13:03:14.449Z,10.43
2019-03-25T13:05:43.844Z,1.47
2019-03-25T13:08:13.535Z,5.17
2019-03-25T13:10:42.752Z,2.92
2019-03-25T13:13:11.956Z,5.20
2019-03-25T13:15:41.513Z,3.52
2019-03-25T13:18:10.820Z,2.02
2019-03-25T13:20:40.136Z,6.95
2019-03-25T13:23:09.331Z,4.97
2019-03-25T13:25:40.094Z,7.15
2019-03-25T13:28:09.318Z,3.62
2019-03-25T13:30:38.522Z,6.85
2019-03-25T13:33:08.111Z,5.03
2019-03-25T13:35:37.645Z,4.62
2019-03-25T13:38:06.886Z,2.95
2019-03-25T13:40:36.130Z,3.62
2019-03-25T13:43:05.336Z,4.70
2019-03-25T13:45:36.203Z,4.25
2019-03-25T13:48:05.505Z,5.67
2019-03-25T13:50:34.706Z,5.53
2019-03-25T13:53:03.990Z,3.27
2019-03-25T13:55:33.588Z,6.42
2019-03-25T13:58:02.787Z,8.50
2019-03-25T14:00:40.608Z,12.85
2019-03-25T14:03:09.858Z,3.55
2019-03-25T14:05:39.453Z,3.50
2019-03-25T14:08:09.028Z,3.90
2019-03-25T14:10:38.608Z,8.60
2019-03-25T14:13:07.972Z,3.27
2019-03-25T14:15:37.280Z,7.00
2019-03-25T14:18:06.955Z,5.33
2019-03-25T14:20:36.218Z,9.45
2019-03-25T14:23:06.165Z,4.17
2019-03-25T14:25:35.384Z,8.25
2019-03-25T14:28:04.757Z,5.20
2019-03-25T14:30:33.976Z,9.43
2019-03-25T14:33:03.564Z,8.20
2019-03-25T14:35:32.795Z,7.12
2019-03-25T14:38:02.891Z,5.67
2019-03-25T14:40:33.734Z,3.27
2019-03-25T14:43:03.019Z,8.13
2019-03-25T14:45:32.236Z,5.40
2019-03-25T14:48:01.435Z,5.65
2019-03-25T14:50:31.558Z,5.80
2019-03-25T14:53:01.626Z,5.33
2019-03-25T14:55:30.844Z,8.20
2019-03-25T14:58:03.485Z,6.25
2019-03-25T15:00:32.729Z,4.28
2019-03-25T15:03:01.926Z,7.30
2019-03-25T15:05:31.148Z,3.52
2019-03-25T15:08:00.380Z,2.77
2019-03-25T15:10:29.625Z,2.10
2019-03-25T15:13:01.229Z,2.58
2019-03-25T15:15:30.508Z,7.75
2019-03-25T15:17:59.730Z,1.50
2019-03-25T15:20:28.963Z,0.80
2019-03-25T15:22:58.499Z,6.83
2019-03-25T15:25:27.798Z,2.37
2019-03-25T15:27:57.080Z,3.80
2019-03-25T15:30:35.467Z,4.83
2019-03-25T15:32:57.231Z,2.35
2019-03-25T15:35:26.623Z,2.42
2019-03-25T15:37:55.796Z,2.35
2019-03-25T15:40:25.138Z,2.55
2019-03-25T15:42:54.702Z,1.40
2019-03-25T15:45:23.987Z,4.37
2019-03-25T15:47:53.220Z,3.15
2019-03-25T15:50:22.572Z,2.08
2019-03-25T15:52:51.842Z,4.17
2019-03-25T15:55:21.387Z,1.00
2019-03-25T15:57:50.691Z,2.72
2019-03-25T16:00:20.733Z,0.95
2019-03-25T16:02:49.940Z,1.10
2019-03-25T16:05:19.169Z,3.90
2019-03-25T16:07:48.486Z,1.22
2019-03-25T16:10:18.329Z,3.65
2019-03-25T16:12:48.040Z,6.28
2019-03-25T16:15:37.634Z,4.67
2019-03-25T16:18:07.070Z,2.95
2019-03-25T16:20:36.460Z,3.60
2019-03-25T16:23:05.753Z,2.02
2019-03-25T16:25:34.950Z,3.35
2019-03-25T16:28:04.185Z,1.85
2019-03-25T16:30:33.383Z,1.70
2019-03-25T16:33:02.579Z,3.10
2019-03-25T16:35:31.797Z,1.50
2019-03-25T16:38:01.281Z,3.67
2019-03-25T16:40:30.504Z,5.20
2019-03-25T16:42:59.702Z,1.75
2019-03-25T16:45:28.891Z,5.25
2019-03-25T16:47:58.399Z,3.80
2019-03-25T16:50:27.597Z,4.33
2019-03-25T16:52:56.834Z,2.20
2019-03-25T16:55:26.135Z,3.52
2019-03-25T16:57:55.335Z,3.75
2019-03-25T17:00:27.584Z,4.95
2019-03-25T17:02:55.549Z,4.58
2019-03-25T17:05:24.741Z,1.65
2019-03-25T17:07:54.474Z,3.83
2019-03-25T17:10:24.063Z,4.47
2019-03-25T17:12:53.291Z,5.35
2019-03-25T17:15:22.487Z,6.15
2019-03-25T17:17:51.691Z,5.15
2019-03-25T17:20:20.901Z,4.12
2019-03-25T17:22:50.157Z,3.65
2019-03-25T17:25:19.731Z,8.65
2019-03-25T17:27:48.929Z,5.95
2019-03-25T17:30:18.870Z,8.28
2019-03-25T17:32:48.064Z,5.58
2019-03-25T17:35:17.275Z,6.65
2019-03-25T17:37:46.501Z,11.10
2019-03-25T17:40:16.001Z,9.88
2019-03-25T17:42:45.201Z,6.60
2019-03-25T17:45:16.340Z,5.37
2019-03-25T17:47:45.520Z,2.98
2019-03-25T17:50:14.992Z,7.62
2019-03-25T17:52:44.189Z,14.53
2019-03-25T17:55:13.569Z,8.88
2019-03-25T17:57:51.056Z,9.13
2019-03-25T18:00:43.947Z,10.63
2019-03-25T18:03:15.277Z,11.00
2019-03-25T18:05:44.075Z,7.00
2019-03-25T18:08:13.299Z,8.63
2019-03-25T18:10:42.510Z,14.58
2019-03-25T18:13:21.934Z,10.03
2019-03-25T18:15:42.662Z,11.20
2019-03-25T18:18:11.851Z,7.65
2019-03-25T18:20:41.097Z,15.72
2019-03-25T18:23:10.308Z,9.48
2019-03-25T18:25:39.532Z,8.73
2019-03-25T18:28:08.744Z,6.75
2019-03-25T18:30:38.299Z,7.00
2019-03-25T18:33:07.704Z,10.38
2019-03-25T18:35:36.902Z,9.68
2019-03-25T18:38:06.133Z,17.45
2019-03-25T18:40:35.324Z,13.40
2019-03-25T18:43:04.594Z,11.73
2019-03-25T18:45:33.813Z,14.23
2019-03-25T18:48:03.004Z,10.90
2019-03-25T18:50:32.199Z,8.50
2019-03-25T18:53:01.503Z,12.28
2019-03-25T18:55:30.699Z,9.28
2019-03-25T18:57:59.930Z,15.63
2019-03-25T19:00:33.418Z,10.60
2019-03-25T19:03:03.000Z,9.63
2019-03-25T19:05:32.208Z,11.40
2019-03-25T19:08:03.864Z,8.93
2019-03-25T19:10:33.866Z,9.25
2019-03-25T19:13:03.153Z,15.63
2019-03-25T19:15:32.441Z,10.43
2019-03-25T19:18:01.621Z,7.85
2019-03-25T19:20:30.845Z,5.72
2019-03-25T19:23:00.075Z,8.03
2019-03-25T19:25:29.291Z,9.60
2019-03-25T19:27:58.550Z,13.75
2019-03-25T19:30:27.786Z,14.05
2019-03-25T19:32:57.225Z,9.45
2019-03-25T19:35:26.773Z,10.00
2019-03-25T19:37:56.255Z,10.63
2019-03-25T19:40:25.439Z,9.60
2019-03-25T19:42:54.680Z,4.78
2019-03-25T19:45:23.921Z,13.28
2019-03-25T19:47:53.114Z,15.18
2019-03-25T19:50:22.401Z,9.38
2019-03-25T19:52:51.617Z,16.70
2019-03-25T19:55:20.808Z,11.43
2019-03-25T19:57:50.085Z,10.40
2019-03-25T20:00:26.129Z,8.88
2019-03-25T20:02:55.381Z,12.30
2019-03-25T20:05:24.629Z,12.65
2019-03-25T20:07:53.902Z,8.68
2019-03-25T20:10:30.838Z,11.05
2019-03-25T20:13:00.269Z,10.55
2019-03-25T20:15:32.601Z,23.85
2019-03-25T20:18:01.052Z,8.80
2019-03-25T20:20:30.275Z,7.72
2019-03-25T20:22:59.478Z,11.65
2019-03-25T20:25:28.671Z,14.10
2019-03-25T20:27:58.226Z,19.87
2019-03-25T20:30:27.540Z,10.35
2019-03-25T20:32:56.836Z,15.98
2019-03-25T20:35:26.073Z,11.25
2019-03-25T20:37:55.230Z,9.23
2019-03-25T20:40:24.439Z,14.00
2019-03-25T20:42:53.635Z,19.25
2019-03-25T20:45:22.834Z,16.60
2019-03-25T20:47:52.103Z,11.68
2019-03-25T20:50:21.290Z,11.28
2019-03-25T20:52:50.456Z,15.23
2019-03-25T20:55:19.826Z,18.35
2019-03-25T20:57:49.007Z,16.30
2019-03-25T21:00:24.452Z,17.52
2019-03-25T21:02:53.723Z,15.08
2019-03-25T21:05:22.941Z,16.75
2019-03-25T21:07:52.147Z,17.50
2019-03-25T21:10:21.355Z,14.47
2019-03-25T21:12:50.545Z,16.00
2019-03-25T21:15:19.785Z,19.42
2019-03-25T21:17:48.998Z,16.87
2019-03-25T21:20:18.179Z,15.78
2019-03-25T21:22:47.391Z,19.95
2019-03-25T21:25:16.631Z,23.67
2019-03-25T21:27:45.831Z,24.32
2019-03-25T21:30:15.416Z,15.93
2019-03-25T21:32:57.307Z,19.85
2019-03-25T21:35:15.633Z,18.85
2019-03-25T21:37:44.948Z,28.15
2019-03-25T21:40:14.409Z,20.97
2019-03-25T21:42:43.601Z,19.70
2019-03-25T21:45:12.952Z,25.27
2019-03-25T21:47:42.223Z,17.95
2019-03-25T21:50:11.835Z,24.92
2019-03-25T21:52:41.034Z,20.43
2019-03-25T21:55:10.473Z,23.18
2019-03-25T21:57:39.668Z,23.73
2019-03-25T22:00:09.352Z,29.45
2019-03-25T22:02:38.567Z,24.47
2019-03-25T22:05:07.899Z,32.08
2019-03-25T22:07:37.101Z,23.95
2019-03-25T22:10:07.125Z,23.50
2019-03-25T22:12:36.366Z,21.52
2019-03-25T22:15:09.028Z,24.30
2019-03-25T22:17:38.596Z,23.42
2019-03-25T22:20:09.136Z,23.20
2019-03-25T22:22:38.361Z,25.92
2019-03-25T22:25:08.640Z,28.27
2019-03-25T22:27:38.018Z,33.25
2019-03-25T22:30:08.177Z,26.20
2019-03-25T22:32:37.399Z,33.28
2019-03-25T22:35:07.010Z,28.45
2019-03-25T22:37:36.239Z,29.55
2019-03-25T22:40:06.397Z,34.73
2019-03-25T22:42:36.223Z,38.98
2019-03-25T22:45:06.341Z,33.95
2019-03-25T22:47:35.834Z,32.67
2019-03-25T22:50:07.045Z,29.95
2019-03-25T22:52:36.327Z,37.40
2019-03-25T22:55:06.975Z,35.90
2019-03-25T22:57:36.280Z,38.75
2019-03-25T23:00:07.176Z,34.92
2019-03-25T23:02:36.376Z,37.53
2019-03-25T23:05:06.127Z,37.70
2019-03-25T23:07:35.359Z,36.25
2019-03-25T23:10:05.177Z,40.12
2019-03-25T23:12:34.402Z,33.63
2019-03-25T23:15:03.705Z,31.65
2019-03-25T23:17:32.903Z,31.05
2019-03-25T23:20:02.125Z,31.25
2019-03-25T23:22:31.354Z,41.88
2019-03-25T23:25:00.582Z,34.67
2019-03-25T23:27:29.819Z,31.55
2019-03-25T23:29:59.024Z,34.18
2019-03-25T23:32:28.223Z,34.48
2019-03-25T23:34:57.456Z,28.60
2019-03-25T23:37:26.660Z,30.85
2019-03-25T23:39:55.872Z,33.02
2019-03-25T23:42:25.106Z,30.92
2019-03-25T23:44:54.313Z,34.45
2019-03-25T23:47:23.504Z,31.57
2019-03-25T23:49:52.728Z,36.35
2019-03-25T23:52:22.039Z,30.40
2019-03-25T23:54:51.244Z,30.08
2019-03-25T23:57:20.482Z,41.18
2019-03-25T23:59:49.996Z,34.30
